sensor_id;sensor_type;location;lat;lon;timestamp;pressure;altitude;pressure_sealevel;temperature;humidity
42169;BME280;27838;43.858;25.974;2024-01-10T00:00:59;102884.75;;;0.91;32.43
42169;BME280;27838;43.858;25.974;2024-01-10T00:03:25;102892.63;;;0.94;32.84
42169;BME280;27838;43.858;25.974;2024-01-10T00:05:52;102898.00;;;0.97;32.62
42169;BME280;27838;43.858;25.974;2024-01-10T00:08:19;102891.06;;;0.96;32.51
42169;BME280;27838;43.858;25.974;2024-01-10T00:10:45;102897.00;;;0.95;32.31
42169;BME280;27838;43.858;25.974;2024-01-10T00:13:12;102895.09;;;0.92;32.15
42169;BME280;27838;43.858;25.974;2024-01-10T00:15:38;102894.88;;;0.89;32.84
42169;BME280;27838;43.858;25.974;2024-01-10T00:18:05;102891.41;;;0.89;32.18
42169;BME280;27838;43.858;25.974;2024-01-10T00:20:31;102900.78;;;0.88;32.16
42169;BME280;27838;43.858;25.974;2024-01-10T00:22:58;102897.34;;;0.88;32.01
42169;BME280;27838;43.858;25.974;2024-01-10T00:25:24;102903.38;;;0.88;32.18
42169;BME280;27838;43.858;25.974;2024-01-10T00:27:51;102900.69;;;0.87;32.29
42169;BME280;27838;43.858;25.974;2024-01-10T00:30:17;102903.94;;;0.84;32.27
42169;BME280;27838;43.858;25.974;2024-01-10T00:32:44;102898.78;;;0.84;31.75
42169;BME280;27838;43.858;25.974;2024-01-10T00:35:10;102902.91;;;0.82;32.41
42169;BME280;27838;43.858;25.974;2024-01-10T00:37:37;102906.25;;;0.81;32.27
42169;BME280;27838;43.858;25.974;2024-01-10T00:40:04;102906.50;;;0.84;32.59
42169;BME280;27838;43.858;25.974;2024-01-10T00:42:31;102910.50;;;0.81;32.61
42169;BME280;27838;43.858;25.974;2024-01-10T00:44:57;102900.44;;;0.72;32.88
42169;BME280;27838;43.858;25.974;2024-01-10T00:47:24;102905.56;;;0.72;33.03
42169;BME280;27838;43.858;25.974;2024-01-10T00:49:50;102903.91;;;0.72;32.49
42169;BME280;27838;43.858;25.974;2024-01-10T00:52:16;102910.47;;;0.69;32.49
42169;BME280;27838;43.858;25.974;2024-01-10T00:54:42;102908.66;;;0.68;35.31
42169;BME280;27838;43.858;25.974;2024-01-10T00:57:11;102893.81;;;0.64;37.16
42169;BME280;27838;43.858;25.974;2024-01-10T00:59:37;102904.00;;;0.74;38.92
42169;BME280;27838;43.858;25.974;2024-01-10T01:02:04;102899.75;;;0.74;41.03
42169;BME280;27838;43.858;25.974;2024-01-10T01:04:30;102900.88;;;0.78;41.50
42169;BME280;27838;43.858;25.974;2024-01-10T01:06:57;102900.56;;;0.73;42.16
42169;BME280;27838;43.858;25.974;2024-01-10T01:09:25;102905.78;;;0.75;43.77
42169;BME280;27838;43.858;25.974;2024-01-10T01:11:51;102897.06;;;0.73;45.13
42169;BME280;27838;43.858;25.974;2024-01-10T01:14:18;102895.31;;;0.72;45.71
42169;BME280;27838;43.858;25.974;2024-01-10T01:16:44;102889.25;;;0.71;46.33
42169;BME280;27838;43.858;25.974;2024-01-10T01:19:11;102882.13;;;0.67;46.58
42169;BME280;27838;43.858;25.974;2024-01-10T01:21:37;102883.13;;;0.69;46.63
42169;BME280;27838;43.858;25.974;2024-01-10T01:24:04;102882.25;;;0.69;47.47
42169;BME280;27838;43.858;25.974;2024-01-10T01:26:31;102882.00;;;0.66;47.76
42169;BME280;27838;43.858;25.974;2024-01-10T01:28:57;102881.00;;;0.64;47.80
42169;BME280;27838;43.858;25.974;2024-01-10T01:31:24;102877.44;;;0.62;48.18
42169;BME280;27838;43.858;25.974;2024-01-10T01:33:50;102880.13;;;0.63;49.04
42169;BME280;27838;43.858;25.974;2024-01-10T01:36:16;102880.88;;;0.62;49.37
42169;BME280;27838;43.858;25.974;2024-01-10T01:38:42;102883.09;;;0.57;49.08
42169;BME280;27838;43.858;25.974;2024-01-10T01:41:09;102886.22;;;0.53;49.62
42169;BME280;27838;43.858;25.974;2024-01-10T01:43:36;102875.81;;;0.52;49.74
42169;BME280;27838;43.858;25.974;2024-01-10T01:46:02;102875.72;;;0.50;50.04
42169;BME280;27838;43.858;25.974;2024-01-10T01:48:29;102872.25;;;0.50;50.55
42169;BME280;27838;43.858;25.974;2024-01-10T01:50:58;102872.50;;;0.53;49.88
42169;BME280;27838;43.858;25.974;2024-01-10T01:53:26;102866.44;;;0.52;50.40
42169;BME280;27838;43.858;25.974;2024-01-10T01:55:54;102874.69;;;0.48;50.19
42169;BME280;27838;43.858;25.974;2024-01-10T01:58:22;102862.44;;;0.44;50.73
42169;BME280;27838;43.858;25.974;2024-01-10T02:00:49;102866.00;;;0.46;50.95
42169;BME280;27838;43.858;25.974;2024-01-10T02:03:16;102855.06;;;0.37;50.92
42169;BME280;27838;43.858;25.974;2024-01-10T02:05:43;102858.50;;;0.37;50.74
42169;BME280;27838;43.858;25.974;2024-01-10T02:08:09;102855.56;;;0.33;51.09
42169;BME280;27838;43.858;25.974;2024-01-10T02:10:36;102863.59;;;0.26;51.21
42169;BME280;27838;43.858;25.974;2024-01-10T02:13:03;102854.13;;;0.25;50.94
42169;BME280;27838;43.858;25.974;2024-01-10T02:15:30;102855.66;;;0.23;51.71
42169;BME280;27838;43.858;25.974;2024-01-10T02:17:56;102853.63;;;0.18;51.41
42169;BME280;27838;43.858;25.974;2024-01-10T02:20:23;102854.38;;;0.06;51.93
42169;BME280;27838;43.858;25.974;2024-01-10T02:22:49;102853.25;;;0.02;52.23
42169;BME280;27838;43.858;25.974;2024-01-10T02:25:16;102849.00;;;0.03;51.62
42169;BME280;27838;43.858;25.974;2024-01-10T02:27:43;102854.38;;;0.06;51.71
42169;BME280;27838;43.858;25.974;2024-01-10T02:30:09;102859.50;;;0.06;51.65
42169;BME280;27838;43.858;25.974;2024-01-10T02:32:36;102854.50;;;0.07;52.17
42169;BME280;27838;43.858;25.974;2024-01-10T02:35:04;102852.94;;;0.09;52.37
42169;BME280;27838;43.858;25.974;2024-01-10T02:37:30;102848.69;;;0.10;52.26
42169;BME280;27838;43.858;25.974;2024-01-10T02:39:56;102856.53;;;0.11;52.22
42169;BME280;27838;43.858;25.974;2024-01-10T02:42:22;102851.81;;;0.06;51.87
42169;BME280;27838;43.858;25.974;2024-01-10T02:44:49;102850.22;;;-0.04;52.13
42169;BME280;27838;43.858;25.974;2024-01-10T02:47:16;102846.63;;;-0.06;52.33
42169;BME280;27838;43.858;25.974;2024-01-10T02:49:42;102849.75;;;-0.10;52.60
42169;BME280;27838;43.858;25.974;2024-01-10T02:52:09;102852.63;;;-0.17;52.92
42169;BME280;27838;43.858;25.974;2024-01-10T02:54:35;102852.63;;;-0.17;53.23
42169;BME280;27838;43.858;25.974;2024-01-10T02:57:02;102852.78;;;-0.26;52.41
42169;BME280;27838;43.858;25.974;2024-01-10T02:59:28;102844.44;;;-0.24;52.66
42169;BME280;27838;43.858;25.974;2024-01-10T03:01:55;102846.63;;;-0.28;52.83
42169;BME280;27838;43.858;25.974;2024-01-10T03:04:21;102846.50;;;-0.30;53.27
42169;BME280;27838;43.858;25.974;2024-01-10T03:06:48;102837.28;;;-0.28;53.32
42169;BME280;27838;43.858;25.974;2024-01-10T03:09:15;102853.69;;;-0.26;52.83
42169;BME280;27838;43.858;25.974;2024-01-10T03:11:42;102845.63;;;-0.30;52.67
42169;BME280;27838;43.858;25.974;2024-01-10T03:14:10;102839.59;;;-0.31;53.11
42169;BME280;27838;43.858;25.974;2024-01-10T03:16:37;102846.63;;;-0.28;53.13
42169;BME280;27838;43.858;25.974;2024-01-10T03:19:04;102841.78;;;-0.35;52.72
42169;BME280;27838;43.858;25.974;2024-01-10T03:21:30;102849.06;;;-0.30;53.75
42169;BME280;27838;43.858;25.974;2024-01-10T03:23:58;102853.31;;;-0.30;53.38
42169;BME280;27838;43.858;25.974;2024-01-10T03:26:26;102823.03;;;-0.46;53.37
42169;BME280;27838;43.858;25.974;2024-01-10T03:28:53;102841.56;;;-0.39;53.79
42169;BME280;27838;43.858;25.974;2024-01-10T03:31:20;102846.03;;;-0.36;53.80
42169;BME280;27838;43.858;25.974;2024-01-10T03:33:47;102841.16;;;-0.33;53.65
42169;BME280;27838;43.858;25.974;2024-01-10T03:36:16;102833.69;;;-0.30;52.96
42169;BME280;27838;43.858;25.974;2024-01-10T03:38:44;102826.78;;;-0.31;53.54
42169;BME280;27838;43.858;25.974;2024-01-10T03:41:14;102826.09;;;-0.40;52.88
42169;BME280;27838;43.858;25.974;2024-01-10T03:43:40;102826.59;;;-0.44;53.77
42169;BME280;27838;43.858;25.974;2024-01-10T03:46:08;102823.53;;;-0.40;53.59
42169;BME280;27838;43.858;25.974;2024-01-10T03:48:34;102822.84;;;-0.38;53.60
42169;BME280;27838;43.858;25.974;2024-01-10T03:51:02;102828.88;;;-0.37;53.73
42169;BME280;27838;43.858;25.974;2024-01-10T03:53:30;102823.09;;;-0.34;52.98
42169;BME280;27838;43.858;25.974;2024-01-10T03:55:56;102829.78;;;-0.36;53.32
42169;BME280;27838;43.858;25.974;2024-01-10T03:58:23;102828.66;;;-0.40;53.43
42169;BME280;27838;43.858;25.974;2024-01-10T04:00:50;102837.44;;;-0.59;54.07
42169;BME280;27838;43.858;25.974;2024-01-10T04:03:16;102833.34;;;-0.67;53.70
42169;BME280;27838;43.858;25.974;2024-01-10T04:05:43;102835.91;;;-0.67;53.97
42169;BME280;27838;43.858;25.974;2024-01-10T04:08:10;102845.41;;;-0.66;54.14
42169;BME280;27838;43.858;25.974;2024-01-10T04:10:36;102837.59;;;-0.67;53.60
42169;BME280;27838;43.858;25.974;2024-01-10T04:13:03;102843.59;;;-0.67;53.45
42169;BME280;27838;43.858;25.974;2024-01-10T04:15:29;102840.03;;;-0.69;53.97
42169;BME280;27838;43.858;25.974;2024-01-10T04:17:56;102849.22;;;-0.61;53.58
42169;BME280;27838;43.858;25.974;2024-01-10T04:20:22;102841.25;;;-0.53;53.81
42169;BME280;27838;43.858;25.974;2024-01-10T04:22:49;102838.81;;;-0.52;53.20
42169;BME280;27838;43.858;25.974;2024-01-10T04:25:15;102837.69;;;-0.55;52.84
42169;BME280;27838;43.858;25.974;2024-01-10T04:27:42;102848.19;;;-0.52;53.03
42169;BME280;27838;43.858;25.974;2024-01-10T04:30:09;102837.25;;;-0.50;52.88
42169;BME280;27838;43.858;25.974;2024-01-10T04:32:35;102849.94;;;-0.51;53.75
42169;BME280;27838;43.858;25.974;2024-01-10T04:35:02;102850.63;;;-0.54;53.17
42169;BME280;27838;43.858;25.974;2024-01-10T04:37:29;102848.41;;;-0.49;53.84
42169;BME280;27838;43.858;25.974;2024-01-10T04:39:55;102848.41;;;-0.49;53.74
42169;BME280;27838;43.858;25.974;2024-01-10T04:42:22;102845.50;;;-0.54;53.57
42169;BME280;27838;43.858;25.974;2024-01-10T04:44:48;102842.56;;;-0.59;53.23
42169;BME280;27838;43.858;25.974;2024-01-10T04:47:15;102843.84;;;-0.64;53.15
42169;BME280;27838;43.858;25.974;2024-01-10T04:49:42;102840.69;;;-0.71;54.31
42169;BME280;27838;43.858;25.974;2024-01-10T04:52:10;102836.59;;;-0.69;53.60
42169;BME280;27838;43.858;25.974;2024-01-10T04:54:37;102835.91;;;-0.67;53.57
42169;BME280;27838;43.858;25.974;2024-01-10T04:57:04;102823.91;;;-0.68;53.91
42169;BME280;27838;43.858;25.974;2024-01-10T04:59:31;102834.63;;;-0.62;53.27
42169;BME280;27838;43.858;25.974;2024-01-10T05:01:57;102839.75;;;-0.62;53.43
42169;BME280;27838;43.858;25.974;2024-01-10T05:04:24;102837.56;;;-0.57;53.82
42169;BME280;27838;43.858;25.974;2024-01-10T05:06:51;102837.44;;;-0.59;53.37
42169;BME280;27838;43.858;25.974;2024-01-10T05:09:17;102837.97;;;-0.63;54.03
42169;BME280;27838;43.858;25.974;2024-01-10T05:11:44;102837.47;;;-0.69;53.55
42169;BME280;27838;43.858;25.974;2024-01-10T05:14:12;102837.75;;;-0.76;53.95
42169;BME280;27838;43.858;25.974;2024-01-10T05:16:39;102837.75;;;-0.76;53.86
42169;BME280;27838;43.858;25.974;2024-01-10T05:19:05;102833.81;;;-0.83;54.21
42169;BME280;27838;43.858;25.974;2024-01-10T05:21:32;102839.06;;;-0.81;54.04
42169;BME280;27838;43.858;25.974;2024-01-10T05:24:00;102837.25;;;-0.82;54.58
42169;BME280;27838;43.858;25.974;2024-01-10T05:26:26;102842.16;;;-0.85;53.76
42169;BME280;27838;43.858;25.974;2024-01-10T05:28:53;102843.03;;;-0.85;53.99
42169;BME280;27838;43.858;25.974;2024-01-10T05:31:19;102843.91;;;-0.84;54.20
42169;BME280;27838;43.858;25.974;2024-01-10T05:33:46;102840.06;;;-0.79;54.68
42169;BME280;27838;43.858;25.974;2024-01-10T05:36:12;102845.44;;;-0.76;54.12
42169;BME280;27838;43.858;25.974;2024-01-10T05:38:39;102852.88;;;-0.79;53.97
42169;BME280;27838;43.858;25.974;2024-01-10T05:41:06;102844.31;;;-0.80;54.47
42169;BME280;27838;43.858;25.974;2024-01-10T05:43:33;102858.25;;;-0.76;54.11
42169;BME280;27838;43.858;25.974;2024-01-10T05:45:59;102845.69;;;-0.73;53.63
42169;BME280;27838;43.858;25.974;2024-01-10T05:48:26;102846.97;;;-0.68;53.63
42169;BME280;27838;43.858;25.974;2024-01-10T05:50:53;102853.84;;;-0.67;53.78
42169;BME280;27838;43.858;25.974;2024-01-10T05:53:19;102854.63;;;-0.68;53.11
42169;BME280;27838;43.858;25.974;2024-01-10T05:55:46;102847.72;;;-0.69;53.35
42169;BME280;27838;43.858;25.974;2024-01-10T05:58:12;102853.38;;;-0.73;53.04
42169;BME280;27838;43.858;25.974;2024-01-10T06:00:39;102848.66;;;-0.79;53.79
42169;BME280;27838;43.858;25.974;2024-01-10T06:03:05;102847.28;;;-0.85;53.72
42169;BME280;27838;43.858;25.974;2024-01-10T06:05:32;102855.88;;;-0.95;54.13
42169;BME280;27838;43.858;25.974;2024-01-10T06:07:59;102855.38;;;-1.01;54.27
42169;BME280;27838;43.858;25.974;2024-01-10T06:10:28;102849.72;;;-0.97;54.39
42169;BME280;27838;43.858;25.974;2024-01-10T06:12:55;102852.69;;;-0.92;53.82
42169;BME280;27838;43.858;25.974;2024-01-10T06:15:21;102847.03;;;-0.88;53.62
42169;BME280;27838;43.858;25.974;2024-01-10T06:17:48;102845.75;;;-0.93;54.25
42169;BME280;27838;43.858;25.974;2024-01-10T06:20:15;102858.41;;;-0.85;53.94
42169;BME280;27838;43.858;25.974;2024-01-10T06:22:41;102859.53;;;-0.81;54.13
42169;BME280;27838;43.858;25.974;2024-01-10T06:25:08;102856.13;;;-0.92;53.97
42169;BME280;27838;43.858;25.974;2024-01-10T06:27:35;102862.13;;;-0.91;54.46
42169;BME280;27838;43.858;25.974;2024-01-10T06:30:01;102873.34;;;-0.79;53.54
42169;BME280;27838;43.858;25.974;2024-01-10T06:32:28;102874.91;;;-0.81;53.45
42169;BME280;27838;43.858;25.974;2024-01-10T06:34:54;102879.78;;;-0.84;53.44
42169;BME280;27838;43.858;25.974;2024-01-10T06:37:21;102873.34;;;-0.79;53.22
42169;BME280;27838;43.858;25.974;2024-01-10T06:39:48;102872.94;;;-0.73;53.72
42169;BME280;27838;43.858;25.974;2024-01-10T06:42:14;102873.88;;;-0.73;53.16
42169;BME280;27838;43.858;25.974;2024-01-10T06:44:41;102878.06;;;-0.73;53.21
42169;BME280;27838;43.858;25.974;2024-01-10T06:47:07;102866.31;;;-0.71;53.56
42169;BME280;27838;43.858;25.974;2024-01-10T06:49:35;102866.69;;;-0.77;53.13
42169;BME280;27838;43.858;25.974;2024-01-10T06:52:01;102872.84;;;-0.75;53.16
42169;BME280;27838;43.858;25.974;2024-01-10T06:54:28;102874.88;;;-0.71;53.08
42169;BME280;27838;43.858;25.974;2024-01-10T06:56:54;102879.25;;;-0.70;54.21
42169;BME280;27838;43.858;25.974;2024-01-10T06:59:21;102879.88;;;-0.72;54.16
42169;BME280;27838;43.858;25.974;2024-01-10T07:01:52;102879.50;;;-0.77;53.66
42169;BME280;27838;43.858;25.974;2024-01-10T07:04:18;102878.31;;;-0.70;53.94
42169;BME280;27838;43.858;25.974;2024-01-10T07:06:47;102880.25;;;-0.68;53.54
42169;BME280;27838;43.858;25.974;2024-01-10T07:09:14;102881.41;;;-0.74;53.41
42169;BME280;27838;43.858;25.974;2024-01-10T07:11:47;102877.09;;;-0.86;54.47
42169;BME280;27838;43.858;25.974;2024-01-10T07:14:14;102876.84;;;-0.89;54.48
42169;BME280;27838;43.858;25.974;2024-01-10T07:16:41;102884.63;;;-0.77;53.77
42169;BME280;27838;43.858;25.974;2024-01-10T07:19:11;102893.81;;;-0.69;54.50
42169;BME280;27838;43.858;25.974;2024-01-10T07:21:40;102890.25;;;-0.71;54.30
42169;BME280;27838;43.858;25.974;2024-01-10T07:24:07;102888.28;;;-0.63;53.89
42169;BME280;27838;43.858;25.974;2024-01-10T07:26:34;102890.84;;;-0.63;54.08
42169;BME280;27838;43.858;25.974;2024-01-10T07:29:01;102889.97;;;-0.64;54.10
42169;BME280;27838;43.858;25.974;2024-01-10T07:31:28;102892.28;;;-0.67;54.36
42169;BME280;27838;43.858;25.974;2024-01-10T07:33:56;102894.84;;;-0.67;55.06
42169;BME280;27838;43.858;25.974;2024-01-10T07:36:24;102898.38;;;-0.54;55.02
42169;BME280;27838;43.858;25.974;2024-01-10T07:38:52;102901.69;;;-0.45;54.67
42169;BME280;27838;43.858;25.974;2024-01-10T07:41:18;102895.00;;;-0.43;55.19
42169;BME280;27838;43.858;25.974;2024-01-10T07:43:45;102893.06;;;-0.35;55.12
42169;BME280;27838;43.858;25.974;2024-01-10T07:46:12;102896.13;;;-0.29;54.18
42169;BME280;27838;43.858;25.974;2024-01-10T07:48:38;102893.69;;;-0.28;54.27
42169;BME280;27838;43.858;25.974;2024-01-10T07:51:05;102896.00;;;-0.31;55.33
42169;BME280;27838;43.858;25.974;2024-01-10T07:53:31;102893.81;;;-0.26;54.72
42169;BME280;27838;43.858;25.974;2024-01-10T07:55:58;102899.38;;;-0.20;54.33
42169;BME280;27838;43.858;25.974;2024-01-10T07:58:25;102902.53;;;-0.12;54.49
42169;BME280;27838;43.858;25.974;2024-01-10T08:00:52;102901.84;;;0.01;54.65
42169;BME280;27838;43.858;25.974;2024-01-10T08:03:19;102905.84;;;-0.03;54.15
42169;BME280;27838;43.858;25.974;2024-01-10T08:05:45;102906.84;;;-0.01;54.75
42169;BME280;27838;43.858;25.974;2024-01-10T08:08:12;102909.13;;;0.06;54.75
42169;BME280;27838;43.858;25.974;2024-01-10T08:10:39;102906.50;;;0.16;53.62
42169;BME280;27838;43.858;25.974;2024-01-10T08:13:06;102910.06;;;0.18;54.14
42169;BME280;27838;43.858;25.974;2024-01-10T08:15:33;102908.81;;;0.13;54.27
42169;BME280;27838;43.858;25.974;2024-01-10T08:18:00;102910.19;;;0.20;54.30
42169;BME280;27838;43.858;25.974;2024-01-10T08:20:28;102898.63;;;0.25;53.47
42169;BME280;27838;43.858;25.974;2024-01-10T08:22:55;102903.13;;;0.17;54.31
42169;BME280;27838;43.858;25.974;2024-01-10T08:25:22;102896.81;;;0.24;54.54
42169;BME280;27838;43.858;25.974;2024-01-10T08:27:50;102899.66;;;0.39;53.54
42169;BME280;27838;43.858;25.974;2024-01-10T08:30:19;102905.81;;;0.41;53.38
42169;BME280;27838;43.858;25.974;2024-01-10T08:32:47;102903.00;;;0.38;53.68
42169;BME280;27838;43.858;25.974;2024-01-10T08:35:13;102901.22;;;0.37;53.88
42169;BME280;27838;43.858;25.974;2024-01-10T08:37:41;102905.69;;;0.40;53.80
42169;BME280;27838;43.858;25.974;2024-01-10T08:40:10;102913.78;;;0.56;53.38
42169;BME280;27838;43.858;25.974;2024-01-10T08:42:40;102908.66;;;0.68;52.84
42169;BME280;27838;43.858;25.974;2024-01-10T08:45:08;102908.25;;;0.85;53.06
42169;BME280;27838;43.858;25.974;2024-01-10T08:47:36;102901.78;;;0.90;52.24
42169;BME280;27838;43.858;25.974;2024-01-10T08:50:04;102911.63;;;1.08;51.77
42169;BME280;27838;43.858;25.974;2024-01-10T08:52:34;102906.41;;;1.18;51.01
42169;BME280;27838;43.858;25.974;2024-01-10T08:55:04;102901.63;;;1.23;50.93
42169;BME280;27838;43.858;25.974;2024-01-10T08:57:31;102899.94;;;1.23;51.05
42169;BME280;27838;43.858;25.974;2024-01-10T08:59:57;102898.00;;;1.32;50.73
42169;BME280;27838;43.858;25.974;2024-01-10T09:02:25;102901.03;;;1.50;49.94
42169;BME280;27838;43.858;25.974;2024-01-10T09:04:53;102891.28;;;1.58;49.77
42169;BME280;27838;43.858;25.974;2024-01-10T09:07:19;102897.53;;;1.74;49.31
42169;BME280;27838;43.858;25.974;2024-01-10T09:09:46;102895.06;;;1.75;48.95
42169;BME280;27838;43.858;25.974;2024-01-10T09:12:13;102896.94;;;1.89;48.79
42169;BME280;27838;43.858;25.974;2024-01-10T09:14:40;102883.38;;;1.92;48.61
42169;BME280;27838;43.858;25.974;2024-01-10T09:17:06;102884.66;;;2.11;48.38
42169;BME280;27838;43.858;25.974;2024-01-10T09:19:33;102872.66;;;2.23;47.79
42169;BME280;27838;43.858;25.974;2024-01-10T09:21:59;102869.47;;;2.27;48.25
42169;BME280;27838;43.858;25.974;2024-01-10T09:24:26;102872.88;;;2.39;47.00
42169;BME280;27838;43.858;25.974;2024-01-10T09:26:53;102868.59;;;2.52;46.68
42169;BME280;27838;43.858;25.974;2024-01-10T09:29:19;102859.56;;;2.58;44.68
42169;BME280;27838;43.858;25.974;2024-01-10T09:31:46;102859.56;;;2.58;43.03
42169;BME280;27838;43.858;25.974;2024-01-10T09:34:13;102855.94;;;2.68;42.64
42169;BME280;27838;43.858;25.974;2024-01-10T09:36:39;102862.69;;;2.79;41.65
42169;BME280;27838;43.858;25.974;2024-01-10T09:39:06;102854.06;;;2.79;39.54
42169;BME280;27838;43.858;25.974;2024-01-10T09:41:41;102850.50;;;2.77;40.71
42169;BME280;27838;43.858;25.974;2024-01-10T09:44:11;102851.53;;;2.92;39.92
42169;BME280;27838;43.858;25.974;2024-01-10T09:46:39;102848.94;;;2.92;39.87
42169;BME280;27838;43.858;25.974;2024-01-10T09:49:07;102842.13;;;3.06;39.40
42169;BME280;27838;43.858;25.974;2024-01-10T09:51:34;102850.44;;;3.15;37.90
42169;BME280;27838;43.858;25.974;2024-01-10T09:54:03;102842.41;;;3.11;37.40
42169;BME280;27838;43.858;25.974;2024-01-10T09:56:32;102834.84;;;3.00;37.01
42169;BME280;27838;43.858;25.974;2024-01-10T09:59:01;102846.34;;;3.06;37.37
42169;BME280;27838;43.858;25.974;2024-01-10T10:01:30;102846.25;;;3.17;37.30
42169;BME280;27838;43.858;25.974;2024-01-10T10:03:57;102838.84;;;3.22;36.54
42169;BME280;27838;43.858;25.974;2024-01-10T10:06:24;102831.88;;;3.34;37.51
42169;BME280;27838;43.858;25.974;2024-01-10T10:08:51;102831.94;;;3.49;36.78
42169;BME280;27838;43.858;25.974;2024-01-10T10:11:17;102834.09;;;3.56;36.31
42169;BME280;27838;43.858;25.974;2024-01-10T10:13:44;102834.91;;;3.55;36.38
42169;BME280;27838;43.858;25.974;2024-01-10T10:16:11;102812.59;;;3.56;36.84
42169;BME280;27838;43.858;25.974;2024-01-10T10:18:39;102821.38;;;3.73;36.27
42169;BME280;27838;43.858;25.974;2024-01-10T10:21:11;102823.13;;;3.74;35.54
42169;BME280;27838;43.858;25.974;2024-01-10T10:23:40;102822.06;;;3.70;36.10
42169;BME280;27838;43.858;25.974;2024-01-10T10:26:14;102818.69;;;3.71;35.72
42169;BME280;27838;43.858;25.974;2024-01-10T10:28:49;102814.47;;;3.58;35.89
42169;BME280;27838;43.858;25.974;2024-01-10T10:31:17;102802.78;;;3.64;36.42
42169;BME280;27838;43.858;25.974;2024-01-10T10:33:45;102809.09;;;3.69;35.57
42169;BME280;27838;43.858;25.974;2024-01-10T10:36:15;102811.25;;;3.76;36.32
42169;BME280;27838;43.858;25.974;2024-01-10T10:38:42;102796.19;;;3.97;35.85
42169;BME280;27838;43.858;25.974;2024-01-10T10:41:09;102794.06;;;4.05;35.35
42169;BME280;27838;43.858;25.974;2024-01-10T10:43:36;102792.97;;;3.86;35.60
42169;BME280;27838;43.858;25.974;2024-01-10T10:46:05;102797.00;;;3.68;35.80
42169;BME280;27838;43.858;25.974;2024-01-10T10:48:35;102787.22;;;3.77;36.31
42169;BME280;27838;43.858;25.974;2024-01-10T10:51:08;102782.38;;;3.96;34.90
42169;BME280;27838;43.858;25.974;2024-01-10T10:53:36;102775.34;;;4.09;34.16
42169;BME280;27838;43.858;25.974;2024-01-10T10:56:04;102773.34;;;4.18;34.07
42169;BME280;27838;43.858;25.974;2024-01-10T10:58:37;102769.44;;;4.40;33.85
42169;BME280;27838;43.858;25.974;2024-01-10T11:01:05;102768.63;;;4.41;33.01
42169;BME280;27838;43.858;25.974;2024-01-10T11:03:37;102751.72;;;4.46;32.97
42169;BME280;27838;43.858;25.974;2024-01-10T11:06:05;102762.56;;;4.55;33.43
42169;BME280;27838;43.858;25.974;2024-01-10T11:14:47;102752.75;;;4.64;32.54
42169;BME280;27838;43.858;25.974;2024-01-10T11:18:01;102742.69;;;4.69;32.47
42169;BME280;27838;43.858;25.974;2024-01-10T11:26:10;102735.41;;;4.62;32.09
42169;BME280;27838;43.858;25.974;2024-01-10T11:28:38;102732.34;;;4.69;31.65
42169;BME280;27838;43.858;25.974;2024-01-10T11:31:07;102730.88;;;4.89;31.61
42169;BME280;27838;43.858;25.974;2024-01-10T11:33:44;102724.31;;;5.10;31.46
42169;BME280;27838;43.858;25.974;2024-01-10T11:36:19;102725.38;;;5.14;30.73
42169;BME280;27838;43.858;25.974;2024-01-10T11:41:30;102714.66;;;4.91;30.90
42169;BME280;27838;43.858;25.974;2024-01-10T11:46:40;102702.00;;;4.50;30.64
42169;BME280;27838;43.858;25.974;2024-01-10T11:49:07;102709.16;;;4.39;30.80
42169;BME280;27838;43.858;25.974;2024-01-10T11:51:37;102700.06;;;4.31;30.86
42169;BME280;27838;43.858;25.974;2024-01-10T11:54:04;102709.25;;;4.26;31.14
42169;BME280;27838;43.858;25.974;2024-01-10T11:56:39;102706.84;;;4.14;31.16
42169;BME280;27838;43.858;25.974;2024-01-10T11:59:10;102705.69;;;4.09;31.55
42169;BME280;27838;43.858;25.974;2024-01-10T12:01:38;102692.78;;;4.09;31.08
42169;BME280;27838;43.858;25.974;2024-01-10T12:04:05;102696.81;;;4.04;31.33
42169;BME280;27838;43.858;25.974;2024-01-10T12:06:34;102691.53;;;3.87;31.61
42169;BME280;27838;43.858;25.974;2024-01-10T12:09:02;102696.69;;;3.87;31.66
42169;BME280;27838;43.858;25.974;2024-01-10T12:11:34;102699.19;;;3.86;32.28
42169;BME280;27838;43.858;25.974;2024-01-10T12:14:02;102696.16;;;3.78;31.81
42169;BME280;27838;43.858;25.974;2024-01-10T12:16:28;102689.09;;;3.75;31.82
42169;BME280;27838;43.858;25.974;2024-01-10T12:18:55;102691.63;;;3.89;32.04
42169;BME280;27838;43.858;25.974;2024-01-10T12:21:22;102701.69;;;3.99;31.72
42169;BME280;27838;43.858;25.974;2024-01-10T12:23:48;102693.22;;;4.02;32.01
42169;BME280;27838;43.858;25.974;2024-01-10T12:26:17;102685.91;;;4.24;32.10
42169;BME280;27838;43.858;25.974;2024-01-10T12:28:57;102690.81;;;4.34;31.88
42169;BME280;27838;43.858;25.974;2024-01-10T12:31:26;102678.72;;;4.33;31.77
42169;BME280;27838;43.858;25.974;2024-01-10T12:33:59;102691.19;;;4.41;31.82
42169;BME280;27838;43.858;25.974;2024-01-10T12:36:26;102685.66;;;4.34;32.08
42169;BME280;27838;43.858;25.974;2024-01-10T12:38:53;102681.81;;;4.28;31.79
42169;BME280;27838;43.858;25.974;2024-01-10T12:41:20;102686.56;;;4.20;31.88
42169;BME280;27838;43.858;25.974;2024-01-10T12:43:52;102686.75;;;4.23;31.64
42169;BME280;27838;43.858;25.974;2024-01-10T12:46:20;102679.44;;;4.16;32.13
42169;BME280;27838;43.858;25.974;2024-01-10T12:49:06;102682.91;;;4.16;32.13
42169;BME280;27838;43.858;25.974;2024-01-10T12:51:34;102676.41;;;4.23;31.85
42169;BME280;27838;43.858;25.974;2024-01-10T12:54:01;102680.75;;;4.24;32.14
42169;BME280;27838;43.858;25.974;2024-01-10T12:56:29;102678.53;;;4.15;31.99
42169;BME280;27838;43.858;25.974;2024-01-10T12:58:56;102673.75;;;4.07;31.82
42169;BME280;27838;43.858;25.974;2024-01-10T13:01:24;102673.13;;;4.11;32.20
42169;BME280;27838;43.858;25.974;2024-01-10T13:03:51;102673.50;;;4.02;31.96